Hiawassee, GA (30546)

8:20 AM EDT on September 01, 2015 (GMT -0400)
Pine Ridge Trail | | Change Station
CLOSE
Current Station
Personal Weather Station
Location: Hiawassee, GA
Elevation: 2060 ft
Nearby Weather Stations

Elev 2060 ft 34.92 °N, 83.71 °W | Updated 10 minutes ago

Mostly Cloudy
Mostly Cloudy
61.9 °F
Feels Like 61.9 °F
N
0.0
Wind Variable Wind from SE

Today
High -- | Low -- °F
--% Chance of Precip.
Yesterday
High -- | Low -- °F
Precip. -- in
7:07 AM 8:01 PM
Waning Gibbous, 89% visible
Pressure 30.21 in
Visibility 0.2 miles
Clouds
Dew Point 62 °F
Humidity 99%
Rainfall 0.00 in
Snow Depth Not available.
UV Not available.
Pollen 9.30 out of 12
Air Quality Not available.
Flu Activity Not available.
METAR KDZJ 011155Z AUTO 00000KT M1/4SM HZ 17/13 A3021 RMK AO2 T01690125 10178 20165
Pressure 30.21 in
Visibility 0.2 miles
Clouds
Dew Point 62 °F
Humidity 99%
Rainfall 0.00 in
Snow Depth Not available.
UV Not available.
Pollen 9.30 out of 12
Air Quality Not available.
Flu Activity Not available.
METAR KDZJ 011155Z AUTO 00000KT M1/4SM HZ 17/13 A3021 RMK AO2 T01690125 10178 20165

10-Day Weather Forecast

×

Almanac

Astronomy

Sep. 01, 2015 Rise Set
Actual Time
Civil Twilight
Nautical Twilight
Astronomical Twilight
Moon
Length of Visible Light
Length of Day
Tomorrow will be .
, % of the Moon is Illuminated

Today's Extremes

State Highs State Lows

Community

WunderPhotos

Upload Photos

1,851,508 photos uploaded!

WunderBlogs® & News

Nearby

Air Quality

  Air Quality AQ Index Pollutant
Not available.

Snow Depth

Station Depth Elevation

Earthquake Activity

City Distance Mag. Time & Date
Minimum magnitude displayed is 2.5.

Coastal Water Temperatures

Place Temperature

Stations

Nearby Weather Stations

Station Location Temp. Windchill Dew Point Humidity Wind Precip. Elev Updated Type